sensor_id;sensor_type;location;lat;lon;timestamp;pressure;altitude;pressure_sealevel;temperature
68939;BMP180;59064;45.294;11.816;2023-05-14T00:00:18;101289.00;;;13.10
68939;BMP180;59064;45.294;11.816;2023-05-14T00:02:44;101289.00;;;13.02
68939;BMP180;59064;45.294;11.816;2023-05-14T00:05:10;101287.00;;;13.00
68939;BMP180;59064;45.294;11.816;2023-05-14T00:07:35;101278.80;;;13.00
68939;BMP180;59064;45.294;11.816;2023-05-14T00:10:01;101273.00;;;13.00
68939;BMP180;59064;45.294;11.816;2023-05-14T00:12:26;101267.20;;;13.00
68939;BMP180;59064;45.294;11.816;2023-05-14T00:14:52;101254.60;;;13.00
68939;BMP180;59064;45.294;11.816;2023-05-14T00:17:18;101246.80;;;13.00
68939;BMP180;59064;45.294;11.816;2023-05-14T00:19:43;101248.20;;;13.00
68939;BMP180;59064;45.294;11.816;2023-05-14T00:22:09;101244.80;;;13.00
68939;BMP180;59064;45.294;11.816;2023-05-14T00:24:35;101238.40;;;13.00
68939;BMP180;59064;45.294;11.816;2023-05-14T00:27:03;101231.00;;;13.00
68939;BMP180;59064;45.294;11.816;2023-05-14T00:29:29;101227.40;;;13.00
68939;BMP180;59064;45.294;11.816;2023-05-14T00:31:54;101222.20;;;13.08
68939;BMP180;59064;45.294;11.816;2023-05-14T00:34:20;101219.00;;;13.10
68939;BMP180;59064;45.294;11.816;2023-05-14T00:36:45;101224.40;;;13.10
68939;BMP180;59064;45.294;11.816;2023-05-14T00:39:12;101216.60;;;13.10
68939;BMP180;59064;45.294;11.816;2023-05-14T00:41:38;101217.60;;;13.10
68939;BMP180;59064;45.294;11.816;2023-05-14T00:44:04;101215.00;;;13.20
68939;BMP180;59064;45.294;11.816;2023-05-14T00:46:29;101212.60;;;13.20
68939;BMP180;59064;45.294;11.816;2023-05-14T00:48:56;101207.80;;;13.20
68939;BMP180;59064;45.294;11.816;2023-05-14T00:51:21;101207.40;;;13.18
68939;BMP180;59064;45.294;11.816;2023-05-14T00:53:47;101201.60;;;13.12
68939;BMP180;59064;45.294;11.816;2023-05-14T00:56:14;101209.20;;;13.20
68939;BMP180;59064;45.294;11.816;2023-05-14T00:58:40;101207.80;;;13.20
68939;BMP180;59064;45.294;11.816;2023-05-14T01:01:05;101208.80;;;13.20
68939;BMP180;59064;45.294;11.816;2023-05-14T01:03:32;101208.80;;;13.20
68939;BMP180;59064;45.294;11.816;2023-05-14T01:09:05;101212.60;;;13.30
68939;BMP180;59064;45.294;11.816;2023-05-14T01:14:20;101201.60;;;13.30
68939;BMP180;59064;45.294;11.816;2023-05-14T01:16:54;101203.00;;;13.30
68939;BMP180;59064;45.294;11.816;2023-05-14T01:19:39;101202.20;;;13.30
68939;BMP180;59064;45.294;11.816;2023-05-14T01:22:05;101201.40;;;13.24
68939;BMP180;59064;45.294;11.816;2023-05-14T01:24:31;101198.40;;;13.20
68939;BMP180;59064;45.294;11.816;2023-05-14T01:27:02;101194.60;;;13.20
68939;BMP180;59064;45.294;11.816;2023-05-14T01:29:32;101191.20;;;13.20
68939;BMP180;59064;45.294;11.816;2023-05-14T01:31:59;101193.40;;;13.20
68939;BMP180;59064;45.294;11.816;2023-05-14T01:34:27;101192.60;;;13.20
68939;BMP180;59064;45.294;11.816;2023-05-14T01:36:56;101193.80;;;13.20
68939;BMP180;59064;45.294;11.816;2023-05-14T01:39:23;101188.20;;;13.20
68939;BMP180;59064;45.294;11.816;2023-05-14T01:41:50;101185.60;;;13.20
68939;BMP180;59064;45.294;11.816;2023-05-14T01:44:17;101179.20;;;13.20
68939;BMP180;59064;45.294;11.816;2023-05-14T01:46:42;101177.40;;;13.20
68939;BMP180;59064;45.294;11.816;2023-05-14T01:49:08;101176.00;;;13.10
68939;BMP180;59064;45.294;11.816;2023-05-14T01:51:33;101170.00;;;13.10
68939;BMP180;59064;45.294;11.816;2023-05-14T01:53:59;101168.60;;;13.10
68939;BMP180;59064;45.294;11.816;2023-05-14T01:56:25;101170.40;;;13.10
68939;BMP180;59064;45.294;11.816;2023-05-14T01:58:51;101168.20;;;13.08
68939;BMP180;59064;45.294;11.816;2023-05-14T02:01:16;101166.60;;;13.02
68939;BMP180;59064;45.294;11.816;2023-05-14T02:03:42;101159.40;;;13.00
68939;BMP180;59064;45.294;11.816;2023-05-14T02:06:08;101162.80;;;13.00
68939;BMP180;59064;45.294;11.816;2023-05-14T02:08:34;101156.40;;;13.00
68939;BMP180;59064;45.294;11.816;2023-05-14T02:11:00;101155.20;;;13.00
68939;BMP180;59064;45.294;11.816;2023-05-14T02:13:26;101149.80;;;12.94
68939;BMP180;59064;45.294;11.816;2023-05-14T02:15:51;101150.80;;;12.90
68939;BMP180;59064;45.294;11.816;2023-05-14T02:18:17;101151.40;;;12.80
68939;BMP180;59064;45.294;11.816;2023-05-14T02:20:42;101148.00;;;12.80
68939;BMP180;59064;45.294;11.816;2023-05-14T02:23:08;101153.20;;;12.80
68939;BMP180;59064;45.294;11.816;2023-05-14T02:25:33;101151.60;;;12.70
68939;BMP180;59064;45.294;11.816;2023-05-14T02:27:59;101149.00;;;12.70
68939;BMP180;59064;45.294;11.816;2023-05-14T02:30:24;101141.80;;;12.70
68939;BMP180;59064;45.294;11.816;2023-05-14T02:32:50;101139.80;;;12.60
68939;BMP180;59064;45.294;11.816;2023-05-14T02:35:16;101141.20;;;12.60
68939;BMP180;59064;45.294;11.816;2023-05-14T02:37:41;101139.00;;;12.60
68939;BMP180;59064;45.294;11.816;2023-05-14T02:40:09;101143.60;;;12.60
68939;BMP180;59064;45.294;11.816;2023-05-14T02:42:35;101145.00;;;12.60
68939;BMP180;59064;45.294;11.816;2023-05-14T02:45:00;101138.20;;;12.58
68939;BMP180;59064;45.294;11.816;2023-05-14T02:47:26;101139.00;;;12.60
68939;BMP180;59064;45.294;11.816;2023-05-14T02:49:51;101138.60;;;12.60
68939;BMP180;59064;45.294;11.816;2023-05-14T02:52:17;101137.80;;;12.60
68939;BMP180;59064;45.294;11.816;2023-05-14T02:54:42;101136.00;;;12.60
68939;BMP180;59064;45.294;11.816;2023-05-14T02:57:08;101142.40;;;12.60
68939;BMP180;59064;45.294;11.816;2023-05-14T02:59:33;101140.80;;;12.60
68939;BMP180;59064;45.294;11.816;2023-05-14T03:01:59;101140.00;;;12.60
68939;BMP180;59064;45.294;11.816;2023-05-14T03:04:24;101137.60;;;12.60
68939;BMP180;59064;45.294;11.816;2023-05-14T03:06:50;101131.40;;;12.60
68939;BMP180;59064;45.294;11.816;2023-05-14T03:09:15;101136.80;;;12.60
68939;BMP180;59064;45.294;11.816;2023-05-14T03:11:41;101138.60;;;12.66
68939;BMP180;59064;45.294;11.816;2023-05-14T03:14:06;101138.80;;;12.70
68939;BMP180;59064;45.294;11.816;2023-05-14T03:16:33;101132.60;;;12.70
68939;BMP180;59064;45.294;11.816;2023-05-14T03:18:58;101130.60;;;12.62
68939;BMP180;59064;45.294;11.816;2023-05-14T03:21:24;101130.40;;;12.60
68939;BMP180;59064;45.294;11.816;2023-05-14T03:23:51;101127.20;;;12.60
68939;BMP180;59064;45.294;11.816;2023-05-14T03:26:17;101115.00;;;12.60
68939;BMP180;59064;45.294;11.816;2023-05-14T03:28:43;101112.20;;;12.60
68939;BMP180;59064;45.294;11.816;2023-05-14T03:31:08;101107.60;;;12.58
68939;BMP180;59064;45.294;11.816;2023-05-14T03:33:34;101100.40;;;12.50
68939;BMP180;59064;45.294;11.816;2023-05-14T03:36:00;101100.80;;;12.50
68939;BMP180;59064;45.294;11.816;2023-05-14T03:38:26;101097.00;;;12.50
68939;BMP180;59064;45.294;11.816;2023-05-14T03:40:51;101101.60;;;12.50
68939;BMP180;59064;45.294;11.816;2023-05-14T03:43:17;101098.60;;;12.50
68939;BMP180;59064;45.294;11.816;2023-05-14T03:45:42;101095.00;;;12.50
68939;BMP180;59064;45.294;11.816;2023-05-14T03:48:08;101098.00;;;12.44
68939;BMP180;59064;45.294;11.816;2023-05-14T03:50:33;101096.80;;;12.40
68939;BMP180;59064;45.294;11.816;2023-05-14T03:52:59;101094.60;;;12.42
68939;BMP180;59064;45.294;11.816;2023-05-14T03:55:25;101098.40;;;12.44
68939;BMP180;59064;45.294;11.816;2023-05-14T03:57:50;101098.40;;;12.40
68939;BMP180;59064;45.294;11.816;2023-05-14T04:00:16;101100.20;;;12.46
68939;BMP180;59064;45.294;11.816;2023-05-14T04:02:42;101091.00;;;12.40
68939;BMP180;59064;45.294;11.816;2023-05-14T04:05:07;101089.60;;;12.40
68939;BMP180;59064;45.294;11.816;2023-05-14T04:07:33;101089.60;;;12.40
68939;BMP180;59064;45.294;11.816;2023-05-14T04:09:59;101084.00;;;12.40
68939;BMP180;59064;45.294;11.816;2023-05-14T04:12:25;101084.00;;;12.40
68939;BMP180;59064;45.294;11.816;2023-05-14T04:14:51;101090.00;;;12.40
68939;BMP180;59064;45.294;11.816;2023-05-14T04:17:17;101088.00;;;12.40
68939;BMP180;59064;45.294;11.816;2023-05-14T04:19:42;101093.80;;;12.40
68939;BMP180;59064;45.294;11.816;2023-05-14T04:22:08;101088.00;;;12.42
68939;BMP180;59064;45.294;11.816;2023-05-14T04:24:34;101092.20;;;12.46
68939;BMP180;59064;45.294;11.816;2023-05-14T04:26:59;101088.20;;;12.50
68939;BMP180;59064;45.294;11.816;2023-05-14T04:29:25;101089.40;;;12.50
68939;BMP180;59064;45.294;11.816;2023-05-14T04:31:50;101089.40;;;12.52
68939;BMP180;59064;45.294;11.816;2023-05-14T04:34:16;101091.00;;;12.60
68939;BMP180;59064;45.294;11.816;2023-05-14T04:36:41;101092.40;;;12.64
68939;BMP180;59064;45.294;11.816;2023-05-14T04:39:07;101093.00;;;12.70
68939;BMP180;59064;45.294;11.816;2023-05-14T04:41:34;101090.00;;;12.80
68939;BMP180;59064;45.294;11.816;2023-05-14T04:44:00;101097.60;;;12.90
68939;BMP180;59064;45.294;11.816;2023-05-14T04:46:28;101100.40;;;13.00
68939;BMP180;59064;45.294;11.816;2023-05-14T04:48:54;101107.40;;;13.06
68939;BMP180;59064;45.294;11.816;2023-05-14T04:51:20;101106.40;;;13.10
68939;BMP180;59064;45.294;11.816;2023-05-14T04:53:46;101109.20;;;13.10
68939;BMP180;59064;45.294;11.816;2023-05-14T04:56:12;101111.60;;;13.10
68939;BMP180;59064;45.294;11.816;2023-05-14T04:58:37;101111.80;;;13.10
68939;BMP180;59064;45.294;11.816;2023-05-14T05:01:03;101109.20;;;13.10
68939;BMP180;59064;45.294;11.816;2023-05-14T05:03:30;101110.00;;;13.10
68939;BMP180;59064;45.294;11.816;2023-05-14T05:05:56;101104.80;;;13.00
68939;BMP180;59064;45.294;11.816;2023-05-14T05:08:22;101099.20;;;13.00
68939;BMP180;59064;45.294;11.816;2023-05-14T05:10:48;101099.40;;;12.96
68939;BMP180;59064;45.294;11.816;2023-05-14T05:13:13;101104.00;;;12.90
68939;BMP180;59064;45.294;11.816;2023-05-14T05:15:41;101097.60;;;12.90
68939;BMP180;59064;45.294;11.816;2023-05-14T05:18:07;101093.20;;;12.90
68939;BMP180;59064;45.294;11.816;2023-05-14T05:20:33;101087.20;;;12.80
68939;BMP180;59064;45.294;11.816;2023-05-14T05:22:58;101087.20;;;12.80
68939;BMP180;59064;45.294;11.816;2023-05-14T05:25:24;101086.80;;;12.80
68939;BMP180;59064;45.294;11.816;2023-05-14T05:27:50;101083.00;;;12.80
68939;BMP180;59064;45.294;11.816;2023-05-14T05:30:15;101084.20;;;12.80
68939;BMP180;59064;45.294;11.816;2023-05-14T05:32:41;101084.80;;;12.80
68939;BMP180;59064;45.294;11.816;2023-05-14T05:35:07;101089.80;;;12.80
68939;BMP180;59064;45.294;11.816;2023-05-14T05:37:32;101088.60;;;12.80
68939;BMP180;59064;45.294;11.816;2023-05-14T05:39:58;101088.60;;;12.80
68939;BMP180;59064;45.294;11.816;2023-05-14T05:42:23;101087.60;;;12.82
68939;BMP180;59064;45.294;11.816;2023-05-14T05:44:49;101089.20;;;12.90
68939;BMP180;59064;45.294;11.816;2023-05-14T05:47:14;101088.20;;;12.90
68939;BMP180;59064;45.294;11.816;2023-05-14T05:49:41;101093.20;;;12.98
68939;BMP180;59064;45.294;11.816;2023-05-14T05:52:06;101090.60;;;13.00
68939;BMP180;59064;45.294;11.816;2023-05-14T05:54:32;101093.20;;;13.00
68939;BMP180;59064;45.294;11.816;2023-05-14T05:56:58;101098.20;;;13.10
68939;BMP180;59064;45.294;11.816;2023-05-14T05:59:24;101097.00;;;13.10
68939;BMP180;59064;45.294;11.816;2023-05-14T06:01:50;101093.40;;;13.10
68939;BMP180;59064;45.294;11.816;2023-05-14T06:04:15;101095.60;;;13.10
68939;BMP180;59064;45.294;11.816;2023-05-14T06:06:41;101098.00;;;13.10
68939;BMP180;59064;45.294;11.816;2023-05-14T06:09:07;101090.20;;;13.20
68939;BMP180;59064;45.294;11.816;2023-05-14T06:11:34;101090.00;;;13.20
68939;BMP180;59064;45.294;11.816;2023-05-14T06:13:59;101088.60;;;13.20
68939;BMP180;59064;45.294;11.816;2023-05-14T06:16:25;101086.20;;;13.20
68939;BMP180;59064;45.294;11.816;2023-05-14T06:18:50;101086.20;;;13.20
68939;BMP180;59064;45.294;11.816;2023-05-14T06:21:20;101080.60;;;13.28
68939;BMP180;59064;45.294;11.816;2023-05-14T06:23:45;101077.40;;;13.28
68939;BMP180;59064;45.294;11.816;2023-05-14T06:26:11;101075.00;;;13.30
68939;BMP180;59064;45.294;11.816;2023-05-14T06:28:37;101069.80;;;13.30
68939;BMP180;59064;45.294;11.816;2023-05-14T06:31:03;101072.20;;;13.30
68939;BMP180;59064;45.294;11.816;2023-05-14T06:33:28;101065.40;;;13.30
68939;BMP180;59064;45.294;11.816;2023-05-14T06:36:03;101064.80;;;13.30
68939;BMP180;59064;45.294;11.816;2023-05-14T06:38:30;101060.40;;;13.30
68939;BMP180;59064;45.294;11.816;2023-05-14T06:40:55;101063.80;;;13.30
68939;BMP180;59064;45.294;11.816;2023-05-14T06:43:21;101067.80;;;13.40
68939;BMP180;59064;45.294;11.816;2023-05-14T06:45:50;101071.80;;;13.40
68939;BMP180;59064;45.294;11.816;2023-05-14T06:48:17;101068.40;;;13.46
68939;BMP180;59064;45.294;11.816;2023-05-14T06:50:46;101067.40;;;13.48
68939;BMP180;59064;45.294;11.816;2023-05-14T06:53:13;101065.60;;;13.50
68939;BMP180;59064;45.294;11.816;2023-05-14T06:55:39;101071.00;;;13.42
68939;BMP180;59064;45.294;11.816;2023-05-14T06:58:08;101070.00;;;13.40
68939;BMP180;59064;45.294;11.816;2023-05-14T07:00:33;101069.60;;;13.32
68939;BMP180;59064;45.294;11.816;2023-05-14T07:02:59;101068.60;;;13.30
68939;BMP180;59064;45.294;11.816;2023-05-14T07:05:25;101068.40;;;13.20
68939;BMP180;59064;45.294;11.816;2023-05-14T07:07:50;101076.00;;;13.20
68939;BMP180;59064;45.294;11.816;2023-05-14T07:10:16;101076.20;;;13.10
68939;BMP180;59064;45.294;11.816;2023-05-14T07:12:42;101075.20;;;13.10
68939;BMP180;59064;45.294;11.816;2023-05-14T07:15:08;101069.80;;;13.10
68939;BMP180;59064;45.294;11.816;2023-05-14T07:17:34;101066.00;;;13.00
68939;BMP180;59064;45.294;11.816;2023-05-14T07:19:59;101062.60;;;13.00
68939;BMP180;59064;45.294;11.816;2023-05-14T07:22:25;101059.80;;;13.00
68939;BMP180;59064;45.294;11.816;2023-05-14T07:24:50;101057.20;;;13.00
68939;BMP180;59064;45.294;11.816;2023-05-14T07:27:16;101056.40;;;13.00
68939;BMP180;59064;45.294;11.816;2023-05-14T07:29:42;101054.40;;;13.10
68939;BMP180;59064;45.294;11.816;2023-05-14T07:32:08;101049.80;;;13.10
68939;BMP180;59064;45.294;11.816;2023-05-14T07:34:34;101046.40;;;13.10
68939;BMP180;59064;45.294;11.816;2023-05-14T07:37:00;101044.60;;;13.10
68939;BMP180;59064;45.294;11.816;2023-05-14T07:39:26;101046.20;;;13.10
68939;BMP180;59064;45.294;11.816;2023-05-14T07:41:51;101040.60;;;13.10
68939;BMP180;59064;45.294;11.816;2023-05-14T07:44:19;101038.00;;;13.18
68939;BMP180;59064;45.294;11.816;2023-05-14T07:46:45;101029.00;;;13.20
68939;BMP180;59064;45.294;11.816;2023-05-14T07:49:10;101025.20;;;13.20
68939;BMP180;59064;45.294;11.816;2023-05-14T07:51:36;101023.60;;;13.16
68939;BMP180;59064;45.294;11.816;2023-05-14T07:54:02;101021.80;;;13.20
68939;BMP180;59064;45.294;11.816;2023-05-14T07:56:28;101023.20;;;13.10
68939;BMP180;59064;45.294;11.816;2023-05-14T07:58:53;101019.00;;;13.10
68939;BMP180;59064;45.294;11.816;2023-05-14T08:01:19;101018.00;;;13.10
68939;BMP180;59064;45.294;11.816;2023-05-14T08:03:44;101014.80;;;13.10
68939;BMP180;59064;45.294;11.816;2023-05-14T08:06:10;101013.00;;;13.08
68939;BMP180;59064;45.294;11.816;2023-05-14T08:08:36;101016.40;;;13.00
68939;BMP180;59064;45.294;11.816;2023-05-14T08:11:02;101014.80;;;13.00
68939;BMP180;59064;45.294;11.816;2023-05-14T08:13:28;101015.80;;;13.00
68939;BMP180;59064;45.294;11.816;2023-05-14T08:15:54;101016.00;;;12.90
68939;BMP180;59064;45.294;11.816;2023-05-14T08:18:20;101009.80;;;12.90
68939;BMP180;59064;45.294;11.816;2023-05-14T08:20:45;101005.40;;;12.90
68939;BMP180;59064;45.294;11.816;2023-05-14T08:23:11;101000.60;;;12.86
68939;BMP180;59064;45.294;11.816;2023-05-14T08:25:37;100994.80;;;12.80
68939;BMP180;59064;45.294;11.816;2023-05-14T08:28:02;100989.80;;;12.80
68939;BMP180;59064;45.294;11.816;2023-05-14T08:30:29;100985.60;;;12.80
68939;BMP180;59064;45.294;11.816;2023-05-14T08:32:54;100989.00;;;12.80
68939;BMP180;59064;45.294;11.816;2023-05-14T08:35:21;100989.20;;;12.88
68939;BMP180;59064;45.294;11.816;2023-05-14T08:37:46;100990.60;;;12.90
68939;BMP180;59064;45.294;11.816;2023-05-14T08:40:12;100993.40;;;13.00
68939;BMP180;59064;45.294;11.816;2023-05-14T08:42:38;100992.80;;;13.08
68939;BMP180;59064;45.294;11.816;2023-05-14T08:45:16;100990.40;;;13.10
68939;BMP180;59064;45.294;11.816;2023-05-14T08:47:45;100987.80;;;13.20
68939;BMP180;59064;45.294;11.816;2023-05-14T08:50:12;100986.80;;;13.30
68939;BMP180;59064;45.294;11.816;2023-05-14T08:52:38;100991.00;;;13.40
68939;BMP180;59064;45.294;11.816;2023-05-14T08:55:04;100988.40;;;13.50
68939;BMP180;59064;45.294;11.816;2023-05-14T08:57:31;100990.60;;;13.60
68939;BMP180;59064;45.294;11.816;2023-05-14T08:59:58;100985.20;;;13.68
68939;BMP180;59064;45.294;11.816;2023-05-14T09:02:27;100984.60;;;13.80
68939;BMP180;59064;45.294;11.816;2023-05-14T09:04:55;100986.20;;;13.90
68939;BMP180;59064;45.294;11.816;2023-05-14T09:07:22;100988.20;;;14.00
68939;BMP180;59064;45.294;11.816;2023-05-14T09:09:48;100988.40;;;14.16
68939;BMP180;59064;45.294;11.816;2023-05-14T09:12:14;100988.40;;;14.30
68939;BMP180;59064;45.294;11.816;2023-05-14T09:14:40;100990.00;;;14.50
68939;BMP180;59064;45.294;11.816;2023-05-14T09:17:07;100992.80;;;14.72
68939;BMP180;59064;45.294;11.816;2023-05-14T09:19:33;100990.60;;;14.90
68939;BMP180;59064;45.294;11.816;2023-05-14T09:21:58;100987.20;;;15.10
68939;BMP180;59064;45.294;11.816;2023-05-14T09:24:25;100985.40;;;15.38
68939;BMP180;59064;45.294;11.816;2023-05-14T09:26:52;100975.80;;;15.50
68939;BMP180;59064;45.294;11.816;2023-05-14T09:29:19;100972.20;;;15.74
68939;BMP180;59064;45.294;11.816;2023-05-14T09:31:44;100968.60;;;16.00
68939;BMP180;59064;45.294;11.816;2023-05-14T09:34:10;100968.00;;;16.20
68939;BMP180;59064;45.294;11.816;2023-05-14T09:36:36;100967.60;;;16.30
68939;BMP180;59064;45.294;11.816;2023-05-14T09:39:02;100964.00;;;16.42
68939;BMP180;59064;45.294;11.816;2023-05-14T09:41:28;100965.00;;;16.60
68939;BMP180;59064;45.294;11.816;2023-05-14T09:43:54;100962.40;;;16.78
68939;BMP180;59064;45.294;11.816;2023-05-14T09:46:21;100955.80;;;16.90
68939;BMP180;59064;45.294;11.816;2023-05-14T09:48:48;100952.20;;;17.00
68939;BMP180;59064;45.294;11.816;2023-05-14T09:51:15;100950.80;;;16.92
68939;BMP180;59064;45.294;11.816;2023-05-14T09:53:43;100949.60;;;17.00
68939;BMP180;59064;45.294;11.816;2023-05-14T09:56:09;100951.60;;;17.00
68939;BMP180;59064;45.294;11.816;2023-05-14T09:58:34;100952.40;;;17.02
68939;BMP180;59064;45.294;11.816;2023-05-14T10:01:00;100950.60;;;17.10
68939;BMP180;59064;45.294;11.816;2023-05-14T10:03:28;100950.20;;;17.10
68939;BMP180;59064;45.294;11.816;2023-05-14T10:05:56;100946.80;;;17.06
68939;BMP180;59064;45.294;11.816;2023-05-14T10:08:35;100943.00;;;17.00
68939;BMP180;59064;45.294;11.816;2023-05-14T10:11:08;100940.80;;;17.00
68939;BMP180;59064;45.294;11.816;2023-05-14T10:13:39;100934.20;;;16.90
68939;BMP180;59064;45.294;11.816;2023-05-14T10:16:20;100932.20;;;16.82
68939;BMP180;59064;45.294;11.816;2023-05-14T10:18:49;100930.20;;;16.80
68939;BMP180;59064;45.294;11.816;2023-05-14T10:21:19;100926.80;;;16.90
68939;BMP180;59064;45.294;11.816;2023-05-14T10:23:45;100922.40;;;16.90
68939;BMP180;59064;45.294;11.816;2023-05-14T10:26:12;100922.20;;;16.90
68939;BMP180;59064;45.294;11.816;2023-05-14T10:28:38;100926.00;;;17.00
68939;BMP180;59064;45.294;11.816;2023-05-14T10:31:04;100923.00;;;17.10
68939;BMP180;59064;45.294;11.816;2023-05-14T10:33:29;100917.20;;;17.20
68939;BMP180;59064;45.294;11.816;2023-05-14T10:36:06;100919.20;;;17.30
68939;BMP180;59064;45.294;11.816;2023-05-14T10:38:36;100918.00;;;17.40
68939;BMP180;59064;45.294;11.816;2023-05-14T10:41:13;100919.60;;;17.30
68939;BMP180;59064;45.294;11.816;2023-05-14T10:43:46;100922.00;;;17.30
68939;BMP180;59064;45.294;11.816;2023-05-14T10:46:12;100914.40;;;17.20
68939;BMP180;59064;45.294;11.816;2023-05-14T10:48:40;100912.80;;;17.20
68939;BMP180;59064;45.294;11.816;2023-05-14T10:51:07;100913.60;;;17.30
68939;BMP180;59064;45.294;11.816;2023-05-14T10:53:38;100913.80;;;17.30
68939;BMP180;59064;45.294;11.816;2023-05-14T10:56:12;100917.60;;;17.40
68939;BMP180;59064;45.294;11.816;2023-05-14T10:58:39;100914.40;;;17.30
68939;BMP180;59064;45.294;11.816;2023-05-14T11:01:07;100909.20;;;17.20
68939;BMP180;59064;45.294;11.816;2023-05-14T11:03:41;100910.60;;;17.16
68939;BMP180;59064;45.294;11.816;2023-05-14T11:06:08;100912.00;;;17.00
68939;BMP180;59064;45.294;11.816;2023-05-14T11:08:35;100909.60;;;16.90
68939;BMP180;59064;45.294;11.816;2023-05-14T11:11:01;100914.20;;;16.90
68939;BMP180;59064;45.294;11.816;2023-05-14T11:13:27;100918.80;;;16.90
68939;BMP180;59064;45.294;11.816;2023-05-14T11:15:52;100918.60;;;16.90
68939;BMP180;59064;45.294;11.816;2023-05-14T11:18:28;100918.80;;;16.90
68939;BMP180;59064;45.294;11.816;2023-05-14T11:21:01;100916.00;;;16.98
68939;BMP180;59064;45.294;11.816;2023-05-14T11:23:27;100918.60;;;17.00
68939;BMP180;59064;45.294;11.816;2023-05-14T11:25:53;100914.80;;;17.00
68939;BMP180;59064;45.294;11.816;2023-05-14T11:28:22;100909.20;;;17.10
68939;BMP180;59064;45.294;11.816;2023-05-14T11:30:52;100908.40;;;17.20
68939;BMP180;59064;45.294;11.816;2023-05-14T11:33:18;100909.80;;;17.30
68939;BMP180;59064;45.294;11.816;2023-05-14T11:35:45;100909.40;;;17.46
68939;BMP180;59064;45.294;11.816;2023-05-14T11:38:20;100913.00;;;17.50
68939;BMP180;59064;45.294;11.816;2023-05-14T11:40:53;100910.60;;;17.60
68939;BMP180;59064;45.294;11.816;2023-05-14T11:43:19;100907.00;;;17.60
68939;BMP180;59064;45.294;11.816;2023-05-14T11:45:51;100910.60;;;17.80
68939;BMP180;59064;45.294;11.816;2023-05-14T11:48:18;100907.20;;;17.80
68939;BMP180;59064;45.294;11.816;2023-05-14T11:50:46;100908.20;;;17.80
68939;BMP180;59064;45.294;11.816;2023-05-14T11:53:18;100907.40;;;17.60
68939;BMP180;59064;45.294;11.816;2023-05-14T11:55:45;100909.80;;;17.40
68939;BMP180;59064;45.294;11.816;2023-05-14T11:58:12;100909.80;;;17.20
68939;BMP180;59064;45.294;11.816;2023-05-14T12:00:38;100908.80;;;16.90
68939;BMP180;59064;45.294;11.816;2023-05-14T12:03:04;100912.60;;;16.62
68939;BMP180;59064;45.294;11.816;2023-05-14T12:05:30;100909.80;;;16.40
68939;BMP180;59064;45.294;11.816;2023-05-14T12:07:55;100906.60;;;16.20
68939;BMP180;59064;45.294;11.816;2023-05-14T12:10:21;100906.20;;;16.10
68939;BMP180;59064;45.294;11.816;2023-05-14T12:12:47;100900.80;;;15.92
68939;BMP180;59064;45.294;11.816;2023-05-14T12:15:13;100905.40;;;15.90
68939;BMP180;59064;45.294;11.816;2023-05-14T12:17:40;100899.00;;;15.78
68939;BMP180;59064;45.294;11.816;2023-05-14T12:20:10;100896.60;;;15.70
68939;BMP180;59064;45.294;11.816;2023-05-14T12:22:36;100896.20;;;15.60
68939;BMP180;59064;45.294;11.816;2023-05-14T12:25:03;100891.60;;;15.54
68939;BMP180;59064;45.294;11.816;2023-05-14T12:27:28;100890.20;;;15.50
68939;BMP180;59064;45.294;11.816;2023-05-14T12:30:05;100889.40;;;15.52
68939;BMP180;59064;45.294;11.816;2023-05-14T12:32:31;100889.00;;;15.60
68939;BMP180;59064;45.294;11.816;2023-05-14T12:34:58;100887.00;;;15.70
68939;BMP180;59064;45.294;11.816;2023-05-14T12:37:23;100884.00;;;15.74
68939;BMP180;59064;45.294;11.816;2023-05-14T12:39:49;100886.40;;;15.80
68939;BMP180;59064;45.294;11.816;2023-05-14T12:42:15;100880.60;;;15.90
68939;BMP180;59064;45.294;11.816;2023-05-14T12:44:40;100882.40;;;15.98
68939;BMP180;59064;45.294;11.816;2023-05-14T12:47:06;100882.60;;;16.00
68939;BMP180;59064;45.294;11.816;2023-05-14T12:49:32;100884.00;;;16.00
68939;BMP180;59064;45.294;11.816;2023-05-14T12:51:57;100884.60;;;16.00
68939;BMP180;59064;45.294;11.816;2023-05-14T12:54:23;100889.40;;;16.00
68939;BMP180;59064;45.294;11.816;2023-05-14T12:56:48;100888.20;;;15.90
68939;BMP180;59064;45.294;11.816;2023-05-14T12:59:14;100889.80;;;15.60
68939;BMP180;59064;45.294;11.816;2023-05-14T13:01:40;100885.60;;;15.40
68939;BMP180;59064;45.294;11.816;2023-05-14T13:04:06;100889.20;;;15.38
68939;BMP180;59064;45.294;11.816;2023-05-14T13:06:33;100884.80;;;15.30
68939;BMP180;59064;45.294;11.816;2023-05-14T13:08:58;100885.20;;;15.30
68939;BMP180;59064;45.294;11.816;2023-05-14T13:11:27;100886.60;;;15.30
68939;BMP180;59064;45.294;11.816;2023-05-14T13:13:58;100886.00;;;15.30
68939;BMP180;59064;45.294;11.816;2023-05-14T13:16:28;100888.40;;;15.40
68939;BMP180;59064;45.294;11.816;2023-05-14T13:18:54;100882.80;;;15.50
68939;BMP180;59064;45.294;11.816;2023-05-14T13:21:19;100883.20;;;15.60
68939;BMP180;59064;45.294;11.816;2023-05-14T13:23:46;100882.40;;;15.70
68939;BMP180;59064;45.294;11.816;2023-05-14T13:26:12;100876.60;;;15.88
68939;BMP180;59064;45.294;11.816;2023-05-14T13:28:38;100874.20;;;16.00
68939;BMP180;59064;45.294;11.816;2023-05-14T13:31:06;100873.00;;;16.04
68939;BMP180;59064;45.294;11.816;2023-05-14T13:33:36;100867.20;;;16.20
68939;BMP180;59064;45.294;11.816;2023-05-14T13:36:02;100867.20;;;16.30
68939;BMP180;59064;45.294;11.816;2023-05-14T13:38:28;100865.60;;;16.40
68939;BMP180;59064;45.294;11.816;2023-05-14T13:40:53;100868.80;;;16.50
68939;BMP180;59064;45.294;11.816;2023-05-14T13:43:22;100862.00;;;16.62
68939;BMP180;59064;45.294;11.816;2023-05-14T13:45:48;100862.40;;;16.80